LS Concorde — ZDHJ7 — position and weather

sailwx.info

Track history (hours):
 
Tides and Currents Weather Stations Pressure Air Temp Water Temp Dewpoint Dewpoint Depression Visibility Wind Speed Wind Dir Waves Ship Positions

LS Concorde

Last reported at 2016-Feb-11 01:34 UTC. Time now 2016-Feb-11 02:21 UTC.
Position N 51°25' E 001°26'.

Length 99 m; draft 6.2 m.

Type: Tanker. MMSI: 236329000.

Date/timePositionNaut miles runAvg speedWind from/ knotsBaromVisibWave heightAir tempDewpointWater temp
2016-Feb-11 01:34N 51°25' E 001°26'0 0.1
2016-Feb-11 00:34N 51°25' E 001°26'0 0.0
2016-Feb-10 23:33N 51°25' E 001°26'0 0.1
2016-Feb-10 22:33N 51°25' E 001°26'0 0.0
2016-Feb-10 21:34N 51°25' E 001°26'0 0.0
2016-Feb-10 20:33N 51°25' E 001°26'0 0.0
2016-Feb-10 19:34N 51°25' E 001°26'0 0.0
2016-Feb-10 18:33N 51°25' E 001°26'0 0.0
2016-Feb-10 17:33N 51°25' E 001°26'0 0.0
2016-Feb-10 16:33N 51°25' E 001°26'4 3.6
2016-Feb-10 15:33N 51°28' E 001°29'2 2.2
2016-Feb-10 14:33N 51°30' E 001°31'0 0.0
2016-Feb-10 13:33N 51°30' E 001°31'0 0.1
2016-Feb-10 12:30N 51°30' E 001°31'1 1.3
2016-Feb-10 11:31N 51°30' E 001°29'0 0.0
2016-Feb-10 10:31N 51°30' E 001°28'0 0.0
2016-Feb-10 09:31N 51°30' E 001°28'0 0.1
2016-Feb-10 08:31N 51°30' E 001°29'0 0.1
2016-Feb-10 07:28N 51°30' E 001°29'0 0.0
2016-Feb-10 06:31N 51°30' E 001°29'0 0.0
2016-Feb-10 05:31N 51°30' E 001°29'0 0.0
2016-Feb-10 04:31N 51°30' E 001°29'0 0.0
2016-Feb-10 03:31N 51°30' E 001°29'0 0.0
2016-Feb-10 02:31N 51°30' E 001°29'0 0.0
2016-Feb-10 01:31N 51°30' E 001°29'0 0.1
2016-Feb-10 00:31N 51°30' E 001°28'0 0.1
2016-Feb-09 23:31N 51°30' E 001°28'0 0.1
2016-Feb-09 22:31N 51°30' E 001°29'0 0.1
2016-Feb-09 21:31N 51°30' E 001°28'0 0.0
2016-Feb-09 20:31N 51°30' E 001°29'0 0.1
2016-Feb-09 19:22N 51°30' E 001°29'1 1.5
2016-Feb-09 18:33N 51°30' E 001°31'0 0.0
2016-Feb-09 17:33N 51°30' E 001°31'0 0.0
2016-Feb-09 16:33N 51°30' E 001°31'0 0.0
2016-Feb-09 15:33N 51°30' E 001°31'0 0.0
2016-Feb-09 14:33N 51°30' E 001°31'0 0.1
2016-Feb-09 13:33N 51°30' E 001°31'0 0.1
2016-Feb-09 12:33N 51°30' E 001°30'0 0.1
2016-Feb-09 11:33N 51°30' E 001°30'0 0.2
2016-Feb-09 10:34N 51°30' E 001°30'8 8.3
2016-Feb-09 09:33N 51°22' E 001°34'8 7.8
2016-Feb-09 08:33N 51°15' E 001°36'6 6.3
2016-Feb-09 07:33N 51°09' E 001°31'5 4.9
2016-Feb-09 06:32N 51°13' E 001°27'0 0.0
2016-Feb-09 05:32N 51°13' E 001°26'0 0.2
2016-Feb-09 04:32N 51°13' E 001°27'0 0.0
2016-Feb-09 03:32N 51°13' E 001°27'0 0.0
2016-Feb-09 02:32N 51°13' E 001°27'0 0.0
2016-Feb-09 01:32N 51°13' E 001°27'0 0.0
2016-Feb-09 00:32N 51°13' E 001°27'0 0.0
2016-Feb-08 23:32N 51°13' E 001°27'0 0.0
2016-Feb-08 22:32N 51°13' E 001°27'0 0.0
2016-Feb-08 21:32N 51°13' E 001°27'0 0.2
2016-Feb-08 20:32N 51°13' E 001°27'0 0.0
2016-Feb-08 19:32N 51°13' E 001°27'0 0.1
2016-Feb-08 18:32N 51°13' E 001°27'0 0.1
2016-Feb-08 17:32N 51°13' E 001°27'0 0.0
2016-Feb-08 16:32N 51°13' E 001°27'0 0.0
2016-Feb-08 15:32N 51°13' E 001°27'0 0.0
2016-Feb-08 14:32N 51°13' E 001°27'0 0.1
2016-Feb-08 13:32N 51°14' E 001°26'0 0.1
2016-Feb-08 12:32N 51°13' E 001°27'0 0.1
2016-Feb-08 11:32N 51°13' E 001°27'0 0.2
2016-Feb-08 10:32N 51°13' E 001°27'0 0.1
2016-Feb-08 09:32N 51°13' E 001°27'0 0.0
2016-Feb-08 08:32N 51°13' E 001°27'0 0.1
2016-Feb-08 07:32N 51°13' E 001°27'0 0.0
2016-Feb-08 06:32N 51°13' E 001°27'0 0.1
2016-Feb-08 05:32N 51°13' E 001°27'0 0.0
2016-Feb-08 04:32N 51°13' E 001°27'0 0.0
2016-Feb-08 03:32N 51°13' E 001°27'0 0.0
2016-Feb-08 02:32N 51°13' E 001°27'2 1.9
2016-Feb-08 01:33N 51°11' E 001°26'1010.0
2016-Feb-08 00:33N 51°03' E 001°18'1211.8
2016-Feb-07 23:32N 50°54' E 001°05'2 1.6
2016-Feb-07 22:25N 50°52' E 001°06'2 1.7
2016-Feb-07 21:27N 50°54' E 001°07'3 3.2
2016-Feb-07 20:33N 50°54' E 001°12'4 3.6
2016-Feb-07 19:33N 50°56' E 001°16'5 5.1
2016-Feb-07 18:33N 51°01' E 001°20'6 6.3
2016-Feb-07 17:33N 51°06' E 001°26'7 7.5
2016-Feb-07 16:34N 51°13' E 001°28'0 0.2
2016-Feb-07 15:33N 51°13' E 001°28'4 4.3
2016-Feb-07 14:33N 51°09' E 001°27'4 4.2
2016-Feb-07 13:33N 51°05' E 001°27'2 1.7
2016-Feb-07 12:33N 51°06' E 001°30'2 2.3
2016-Feb-07 11:33N 51°07' E 001°32'3 2.9
2016-Feb-07 10:33N 51°09' E 001°36'4 4.4
2016-Feb-07 09:33N 51°13' E 001°38'7 7.0
2016-Feb-07 08:33N 51°20' E 001°35'8 8.4
2016-Feb-07 07:33N 51°27' E 001°28'9 8.7
2016-Feb-07 06:33N 51°29' E 001°14'9 9.4
2016-Feb-07 05:33N 51°29' E 000°59'1010.4
2016-Feb-07 04:33N 51°30' E 000°42'1010.1
2016-Feb-07 03:33N 51°27' E 000°26'4 3.6
2016-Feb-07 02:34N 51°27' E 000°21'0 0.4
2016-Feb-07 01:34N 51°28' E 000°21'0 0.0
2016-Feb-07 00:34N 51°28' E 000°21'0 0.0
2016-Feb-06 23:34N 51°28' E 000°21'0 0.0
2016-Feb-06 22:34N 51°28' E 000°21'0 0.0
2016-Feb-06 21:34N 51°28' E 000°21'0 0.5
2016-Feb-06 20:34N 51°27' E 000°21'1 0.8
2016-Feb-06 19:34N 51°27' E 000°22'8 7.8
2016-Feb-06 18:33N 51°30' E 000°33'0 0.3
2016-Feb-06 17:32N 51°31' E 000°33'0 0.0
2016-Feb-06 16:32N 51°31' E 000°33'0 0.0
2016-Feb-06 15:32N 51°31' E 000°33'0 0.0
2016-Feb-06 14:32N 51°31' E 000°33'0 0.0
2016-Feb-06 13:32N 51°31' E 000°33'0 0.0
2016-Feb-06 12:32N 51°31' E 000°33'0 0.0
2016-Feb-06 11:32N 51°31' E 000°33'0 0.0
2016-Feb-06 10:32N 51°31' E 000°33'0 0.0
2016-Feb-06 09:32N 51°31' E 000°33'0 0.0
2016-Feb-06 08:32N 51°31' E 000°33'0 0.0
2016-Feb-06 07:32N 51°31' E 000°33'0 0.0
2016-Feb-06 06:32N 51°31' E 000°33'0 0.0
2016-Feb-06 05:32N 51°31' E 000°33'1 1.4
2016-Feb-06 04:33N 51°30' E 000°36'9 8.6
2016-Feb-06 03:34N 51°30' E 000°49'8 8.0
2016-Feb-06 02:34N 51°30' E 001°02'8 8.3
2016-Feb-06 01:34N 51°29' E 001°15'8 8.0
2016-Feb-06 00:33N 51°28' E 001°28'1110.6
2016-Feb-05 23:33N 51°18' E 001°36'1211.8
2016-Feb-05 22:33N 51°07' E 001°41'9 9.5
2016-Feb-05 21:33N 50°58' E 001°47'3 3.3
2016-Feb-05 20:32N 50°58' E 001°52'0 0.0
2016-Feb-05 19:32N 50°58' E 001°52'0 0.0
2016-Feb-05 18:32N 50°58' E 001°52'0 0.2
2016-Feb-05 17:31N 50°58' E 001°52'4 3.9
2016-Feb-05 16:33N 51°01' E 001°48'1010.0
2016-Feb-05 15:34N 51°03' E 002°04'3 2.7
2016-Feb-05 14:32N 51°04' E 002°08'0 0.0
2016-Feb-05 13:05N 51°04' E 002°08'0 0.0
2016-Feb-05 12:29N 51°04' E 002°08'0 0.0
2016-Feb-05 11:26N 51°04' E 002°08'0 0.0
2016-Feb-05 10:32N 51°04' E 002°08'0 0.0
2016-Feb-05 09:29N 51°04' E 002°08'0 0.0
2016-Feb-05 08:23N 51°04' E 002°08'0 0.0
2016-Feb-05 07:32N 51°04' E 002°08'4 3.5
2016-Feb-05 06:17N 51°04' E 002°15'4 4.3
2016-Feb-05 05:21N 51°03' E 002°21'1 1.1
2016-Feb-05 04:16N 51°03' E 002°19'0 0.0
2016-Feb-05 03:07N 51°03' E 002°19'0 0.0
2016-Feb-05 02:04N 51°03' E 002°19'0 0.0
2016-Feb-05 01:19N 51°03' E 002°19'0 0.0
2016-Feb-05 00:13N 51°03' E 002°19'1 0.9
2016-Feb-04 23:33N 51°03' E 002°20'2 2.2
2016-Feb-04 22:30N 51°04' E 002°17'1111.2
2016-Feb-04 21:33N 51°02' E 002°00'1110.7
2016-Feb-04 20:34N 51°04' E 001°44'9 8.7
2016-Feb-04 19:34N 51°11' E 001°35'9 9.3
2016-Feb-04 18:34N 51°20' E 001°35'1010.3
2016-Feb-04 17:33N 51°31' E 001°32'2 1.6
2016-Feb-04 16:31N 51°32' E 001°31'0 0.1
2016-Feb-04 15:34N 51°32' E 001°31'0 0.5
2016-Feb-04 14:33N 51°32' E 001°32'2 1.7
2016-Feb-04 13:31N 51°30' E 001°32'0 0.0
2016-Feb-04 12:31N 51°30' E 001°32'0 0.0
2016-Feb-04 11:31N 51°30' E 001°32'0 0.0
2016-Feb-04 10:31N 51°30' E 001°32'0 0.0
2016-Feb-04 09:31N 51°30' E 001°32'0 0.0
2016-Feb-04 08:31N 51°30' E 001°32'0 0.0
2016-Feb-04 07:31N 51°30' E 001°32'0 0.0
2016-Feb-04 06:31N 51°30' E 001°32'0 0.0
2016-Feb-04 05:31N 51°30' E 001°32'0 0.0
2016-Feb-04 04:31N 51°30' E 001°32'0 0.0
2016-Feb-04 03:31N 51°30' E 001°32'0 0.0
2016-Feb-04 02:31N 51°30' E 001°32'0 0.0
2016-Feb-04 01:31N 51°30' E 001°32'0 0.0
2016-Feb-04 00:31N 51°30' E 001°32'0 0.0
2016-Feb-03 23:31N 51°30' E 001°32'1 0.5
2016-Feb-03 22:32N 51°31' E 001°31'0 0.0
2016-Feb-03 21:32N 51°31' E 001°31'0 0.0
2016-Feb-03 20:32N 51°31' E 001°31'0 0.0
2016-Feb-03 19:32N 51°31' E 001°31'0 0.3
2016-Feb-03 18:33N 51°30' E 001°32'6 6.1
2016-Feb-03 17:33N 51°25' E 001°26'0 0.0
2016-Feb-03 16:33N 51°25' E 001°26'0 0.0
2016-Feb-03 15:33N 51°25' E 001°26'0 0.0
2016-Feb-03 14:34N 51°25' E 001°26'0 0.0
2016-Feb-03 13:33N 51°25' E 001°26'0 0.0
2016-Feb-03 12:33N 51°25' E 001°26'0 0.0
2016-Feb-03 11:33N 51°25' E 001°26'0 0.0
2016-Feb-03 10:34N 51°25' E 001°26'0 0.0
2016-Feb-03 09:33N 51°25' E 001°26'0 0.0
2016-Feb-03 08:34N 51°25' E 001°26'0 0.0
2016-Feb-03 07:33N 51°25' E 001°26'0 0.0
2016-Feb-03 06:33N 51°25' E 001°26'0 0.0
2016-Feb-03 05:34N 51°25' E 001°26'0 0.0
2016-Feb-03 04:33N 51°25' E 001°26'0 0.0
2016-Feb-03 03:33N 51°25' E 001°26'0 0.0
2016-Feb-03 02:33N 51°25' E 001°26'0 0.0
2016-Feb-03 01:33N 51°25' E 001°26'0 0.0
2016-Feb-03 00:33N 51°25' E 001°26'0 0.0
2016-Feb-02 23:33N 51°25' E 001°26'0 0.0
2016-Feb-02 22:33N 51°25' E 001°26'0 0.0
2016-Feb-02 21:34N 51°25' E 001°26'0 0.0
2016-Feb-02 20:33N 51°25' E 001°26'0 0.0
2016-Feb-02 19:33N 51°25' E 001°26'0 0.0
2016-Feb-02 18:33N 51°25' E 001°26'0 0.1
2016-Feb-02 17:33N 51°25' E 001°26'0 0.1
2016-Feb-02 16:33N 51°25' E 001°26'0 0.1
2016-Feb-02 15:33N 51°25' E 001°26'0 0.0
2016-Feb-02 14:33N 51°25' E 001°26'0 0.0
2016-Feb-02 13:33N 51°25' E 001°26'0 0.0
2016-Feb-02 12:33N 51°25' E 001°26'0 0.0
2016-Feb-02 11:33N 51°25' E 001°26'0 0.0
2016-Feb-02 10:34N 51°25' E 001°26'0 0.0
2016-Feb-02 09:33N 51°25' E 001°26'0 0.0
2016-Feb-02 08:33N 51°25' E 001°26'0 0.0
2016-Feb-02 07:33N 51°25' E 001°26'0 0.0
2016-Feb-02 06:33N 51°25' E 001°26'0 0.1
2016-Feb-02 05:33N 51°25' E 001°26'0 0.0
2016-Feb-02 04:33N 51°25' E 001°26'0 0.0
2016-Feb-02 03:33N 51°25' E 001°26'0 0.1
2016-Feb-02 02:33N 51°25' E 001°26'0 0.0
2016-Feb-02 01:33N 51°25' E 001°26'0 0.0
2016-Feb-02 00:33N 51°25' E 001°26'0 0.0
2016-Feb-01 23:33N 51°25' E 001°26'0 0.0
2016-Feb-01 22:33N 51°25' E 001°26'0 0.0
2016-Feb-01 21:33N 51°25' E 001°26'0 0.0
2016-Feb-01 20:33N 51°25' E 001°26'0 0.0
2016-Feb-01 19:33N 51°25' E 001°26'0 0.0
2016-Feb-01 18:33N 51°25' E 001°26'0 0.0
2016-Feb-01 17:33N 51°25' E 001°26'0 0.1
2016-Feb-01 16:33N 51°25' E 001°26'0 0.0
2016-Feb-01 15:33N 51°25' E 001°26'0 0.0
2016-Feb-01 14:33N 51°25' E 001°26'0 0.1
2016-Feb-01 13:33N 51°25' E 001°26'0 0.1
2016-Feb-01 12:33N 51°25' E 001°26'2 1.6
2016-Feb-01 11:34N 51°26' E 001°29'8 7.9
2016-Feb-01 10:33N 51°30' E 001°40'8 8.1
2016-Feb-01 09:33N 51°29' E 001°53'7 7.2
2016-Feb-01 08:33N 51°25' E 002°02'8 7.4
2016-Feb-01 07:33N 51°21' E 002°13'6 5.9
2016-Feb-01 06:32N 51°21' E 002°23'6 6.2
2016-Feb-01 05:31N 51°23' E 002°32'7 6.7
2016-Feb-01 04:33N 51°20' E 002°41'1010.4
2016-Feb-01 03:33N 51°10' E 002°36'1010.3
2016-Feb-01 02:32N 51°04' E 002°22'  
Track history (hours):
 
Tides and Currents Weather Stations Pressure Air Temp Water Temp Dewpoint Dewpoint Depression Visibility Wind Speed Wind Dir Waves Ship Positions

LS Concorde

Last reported at 2016-Feb-11 01:34 UTC. Time now 2016-Feb-11 02:21 UTC.
Position N 51°25' E 001°26'.

Length 99 m; draft 6.2 m.

Type: Tanker. MMSI: 236329000.

Date/timePositionNaut miles runAvg speedWind from/ knotsBaromVisibWave heightAir tempDewpointWater temp
2016-Feb-11 01:34N 51°25' E 001°26'0 0.1
2016-Feb-11 00:34N 51°25' E 001°26'0 0.0
2016-Feb-10 23:33N 51°25' E 001°26'0 0.1
2016-Feb-10 22:33N 51°25' E 001°26'0 0.0
2016-Feb-10 21:34N 51°25' E 001°26'0 0.0
2016-Feb-10 20:33N 51°25' E 001°26'0 0.0
2016-Feb-10 19:34N 51°25' E 001°26'0 0.0
2016-Feb-10 18:33N 51°25' E 001°26'0 0.0
2016-Feb-10 17:33N 51°25' E 001°26'0 0.0
2016-Feb-10 16:33N 51°25' E 001°26'4 3.6
2016-Feb-10 15:33N 51°28' E 001°29'2 2.2
2016-Feb-10 14:33N 51°30' E 001°31'0 0.0
2016-Feb-10 13:33N 51°30' E 001°31'0 0.1
2016-Feb-10 12:30N 51°30' E 001°31'1 1.3
2016-Feb-10 11:31N 51°30' E 001°29'0 0.0
2016-Feb-10 10:31N 51°30' E 001°28'0 0.0
2016-Feb-10 09:31N 51°30' E 001°28'0 0.1
2016-Feb-10 08:31N 51°30' E 001°29'0 0.1
2016-Feb-10 07:28N 51°30' E 001°29'0 0.0
2016-Feb-10 06:31N 51°30' E 001°29'0 0.0
2016-Feb-10 05:31N 51°30' E 001°29'0 0.0
2016-Feb-10 04:31N 51°30' E 001°29'0 0.0
2016-Feb-10 03:31N 51°30' E 001°29'0 0.0
2016-Feb-10 02:31N 51°30' E 001°29'0 0.0
2016-Feb-10 01:31N 51°30' E 001°29'0 0.1
2016-Feb-10 00:31N 51°30' E 001°28'0 0.1
2016-Feb-09 23:31N 51°30' E 001°28'0 0.1
2016-Feb-09 22:31N 51°30' E 001°29'0 0.1
2016-Feb-09 21:31N 51°30' E 001°28'0 0.0
2016-Feb-09 20:31N 51°30' E 001°29'0 0.1
2016-Feb-09 19:22N 51°30' E 001°29'1 1.5
2016-Feb-09 18:33N 51°30' E 001°31'0 0.0
2016-Feb-09 17:33N 51°30' E 001°31'0 0.0
2016-Feb-09 16:33N 51°30' E 001°31'0 0.0
2016-Feb-09 15:33N 51°30' E 001°31'0 0.0
2016-Feb-09 14:33N 51°30' E 001°31'0 0.1
2016-Feb-09 13:33N 51°30' E 001°31'0 0.1
2016-Feb-09 12:33N 51°30' E 001°30'0 0.1
2016-Feb-09 11:33N 51°30' E 001°30'0 0.2
2016-Feb-09 10:34N 51°30' E 001°30'8 8.3
2016-Feb-09 09:33N 51°22' E 001°34'8 7.8
2016-Feb-09 08:33N 51°15' E 001°36'6 6.3
2016-Feb-09 07:33N 51°09' E 001°31'5 4.9
2016-Feb-09 06:32N 51°13' E 001°27'0 0.0
2016-Feb-09 05:32N 51°13' E 001°26'0 0.2
2016-Feb-09 04:32N 51°13' E 001°27'0 0.0
2016-Feb-09 03:32N 51°13' E 001°27'0 0.0
2016-Feb-09 02:32N 51°13' E 001°27'0 0.0
2016-Feb-09 01:32N 51°13' E 001°27'0 0.0
2016-Feb-09 00:32N 51°13' E 001°27'0 0.0
2016-Feb-08 23:32N 51°13' E 001°27'0 0.0
2016-Feb-08 22:32N 51°13' E 001°27'0 0.0
2016-Feb-08 21:32N 51°13' E 001°27'0 0.2
2016-Feb-08 20:32N 51°13' E 001°27'0 0.0
2016-Feb-08 19:32N 51°13' E 001°27'0 0.1
2016-Feb-08 18:32N 51°13' E 001°27'0 0.1
2016-Feb-08 17:32N 51°13' E 001°27'0 0.0
2016-Feb-08 16:32N 51°13' E 001°27'0 0.0
2016-Feb-08 15:32N 51°13' E 001°27'0 0.0
2016-Feb-08 14:32N 51°13' E 001°27'0 0.1
2016-Feb-08 13:32N 51°14' E 001°26'0 0.1
2016-Feb-08 12:32N 51°13' E 001°27'0 0.1
2016-Feb-08 11:32N 51°13' E 001°27'0 0.2
2016-Feb-08 10:32N 51°13' E 001°27'0 0.1
2016-Feb-08 09:32N 51°13' E 001°27'0 0.0
2016-Feb-08 08:32N 51°13' E 001°27'0 0.1
2016-Feb-08 07:32N 51°13' E 001°27'0 0.0
2016-Feb-08 06:32N 51°13' E 001°27'0 0.1
2016-Feb-08 05:32N 51°13' E 001°27'0 0.0
2016-Feb-08 04:32N 51°13' E 001°27'0 0.0
2016-Feb-08 03:32N 51°13' E 001°27'0 0.0
2016-Feb-08 02:32N 51°13' E 001°27'2 1.9
2016-Feb-08 01:33N 51°11' E 001°26'1010.0
2016-Feb-08 00:33N 51°03' E 001°18'1211.8
2016-Feb-07 23:32N 50°54' E 001°05'2 1.6
2016-Feb-07 22:25N 50°52' E 001°06'2 1.7
2016-Feb-07 21:27N 50°54' E 001°07'3 3.2
2016-Feb-07 20:33N 50°54' E 001°12'4 3.6
2016-Feb-07 19:33N 50°56' E 001°16'5 5.1
2016-Feb-07 18:33N 51°01' E 001°20'6 6.3
2016-Feb-07 17:33N 51°06' E 001°26'7 7.5
2016-Feb-07 16:34N 51°13' E 001°28'0 0.2
2016-Feb-07 15:33N 51°13' E 001°28'4 4.3
2016-Feb-07 14:33N 51°09' E 001°27'4 4.2
2016-Feb-07 13:33N 51°05' E 001°27'2 1.7
2016-Feb-07 12:33N 51°06' E 001°30'2 2.3
2016-Feb-07 11:33N 51°07' E 001°32'3 2.9
2016-Feb-07 10:33N 51°09' E 001°36'4 4.4
2016-Feb-07 09:33N 51°13' E 001°38'7 7.0
2016-Feb-07 08:33N 51°20' E 001°35'8 8.4
2016-Feb-07 07:33N 51°27' E 001°28'9 8.7
2016-Feb-07 06:33N 51°29' E 001°14'9 9.4
2016-Feb-07 05:33N 51°29' E 000°59'1010.4
2016-Feb-07 04:33N 51°30' E 000°42'1010.1
2016-Feb-07 03:33N 51°27' E 000°26'4 3.6
2016-Feb-07 02:34N 51°27' E 000°21'0 0.4
2016-Feb-07 01:34N 51°28' E 000°21'0 0.0
2016-Feb-07 00:34N 51°28' E 000°21'0 0.0
2016-Feb-06 23:34N 51°28' E 000°21'0 0.0
2016-Feb-06 22:34N 51°28' E 000°21'0 0.0
2016-Feb-06 21:34N 51°28' E 000°21'0 0.5
2016-Feb-06 20:34N 51°27' E 000°21'1 0.8
2016-Feb-06 19:34N 51°27' E 000°22'8 7.8
2016-Feb-06 18:33N 51°30' E 000°33'0 0.3
2016-Feb-06 17:32N 51°31' E 000°33'0 0.0
2016-Feb-06 16:32N 51°31' E 000°33'0 0.0
2016-Feb-06 15:32N 51°31' E 000°33'0 0.0
2016-Feb-06 14:32N 51°31' E 000°33'0 0.0
2016-Feb-06 13:32N 51°31' E 000°33'0 0.0
2016-Feb-06 12:32N 51°31' E 000°33'0 0.0
2016-Feb-06 11:32N 51°31' E 000°33'0 0.0
2016-Feb-06 10:32N 51°31' E 000°33'0 0.0
2016-Feb-06 09:32N 51°31' E 000°33'0 0.0
2016-Feb-06 08:32N 51°31' E 000°33'0 0.0
2016-Feb-06 07:32N 51°31' E 000°33'0 0.0
2016-Feb-06 06:32N 51°31' E 000°33'0 0.0
2016-Feb-06 05:32N 51°31' E 000°33'1 1.4
2016-Feb-06 04:33N 51°30' E 000°36'9 8.6
2016-Feb-06 03:34N 51°30' E 000°49'8 8.0
2016-Feb-06 02:34N 51°30' E 001°02'8 8.3
2016-Feb-06 01:34N 51°29' E 001°15'8 8.0
2016-Feb-06 00:33N 51°28' E 001°28'1110.6
2016-Feb-05 23:33N 51°18' E 001°36'1211.8
2016-Feb-05 22:33N 51°07' E 001°41'9 9.5
2016-Feb-05 21:33N 50°58' E 001°47'3 3.3
2016-Feb-05 20:32N 50°58' E 001°52'0 0.0
2016-Feb-05 19:32N 50°58' E 001°52'0 0.0
2016-Feb-05 18:32N 50°58' E 001°52'0 0.2
2016-Feb-05 17:31N 50°58' E 001°52'4 3.9
2016-Feb-05 16:33N 51°01' E 001°48'1010.0
2016-Feb-05 15:34N 51°03' E 002°04'3 2.7
2016-Feb-05 14:32N 51°04' E 002°08'0 0.0
2016-Feb-05 13:05N 51°04' E 002°08'0 0.0
2016-Feb-05 12:29N 51°04' E 002°08'0 0.0
2016-Feb-05 11:26N 51°04' E 002°08'0 0.0
2016-Feb-05 10:32N 51°04' E 002°08'0 0.0
2016-Feb-05 09:29N 51°04' E 002°08'0 0.0
2016-Feb-05 08:23N 51°04' E 002°08'0 0.0
2016-Feb-05 07:32N 51°04' E 002°08'4 3.5
2016-Feb-05 06:17N 51°04' E 002°15'4 4.3
2016-Feb-05 05:21N 51°03' E 002°21'1 1.1
2016-Feb-05 04:16N 51°03' E 002°19'0 0.0
2016-Feb-05 03:07N 51°03' E 002°19'0 0.0
2016-Feb-05 02:04N 51°03' E 002°19'0 0.0
2016-Feb-05 01:19N 51°03' E 002°19'0 0.0
2016-Feb-05 00:13N 51°03' E 002°19'1 0.9
2016-Feb-04 23:33N 51°03' E 002°20'2 2.2
2016-Feb-04 22:30N 51°04' E 002°17'1111.2
2016-Feb-04 21:33N 51°02' E 002°00'1110.7
2016-Feb-04 20:34N 51°04' E 001°44'9 8.7
2016-Feb-04 19:34N 51°11' E 001°35'9 9.3
2016-Feb-04 18:34N 51°20' E 001°35'1010.3
2016-Feb-04 17:33N 51°31' E 001°32'2 1.6
2016-Feb-04 16:31N 51°32' E 001°31'0 0.1
2016-Feb-04 15:34N 51°32' E 001°31'0 0.5
2016-Feb-04 14:33N 51°32' E 001°32'2 1.7
2016-Feb-04 13:31N 51°30' E 001°32'0 0.0
2016-Feb-04 12:31N 51°30' E 001°32'0 0.0
2016-Feb-04 11:31N 51°30' E 001°32'0 0.0
2016-Feb-04 10:31N 51°30' E 001°32'0 0.0
2016-Feb-04 09:31N 51°30' E 001°32'0 0.0
2016-Feb-04 08:31N 51°30' E 001°32'0 0.0
2016-Feb-04 07:31N 51°30' E 001°32'0 0.0
2016-Feb-04 06:31N 51°30' E 001°32'0 0.0
2016-Feb-04 05:31N 51°30' E 001°32'0 0.0
2016-Feb-04 04:31N 51°30' E 001°32'0 0.0
2016-Feb-04 03:31N 51°30' E 001°32'0 0.0
2016-Feb-04 02:31N 51°30' E 001°32'0 0.0
2016-Feb-04 01:31N 51°30' E 001°32'0 0.0
2016-Feb-04 00:31N 51°30' E 001°32'0 0.0
2016-Feb-03 23:31N 51°30' E 001°32'1 0.5
2016-Feb-03 22:32N 51°31' E 001°31'0 0.0
2016-Feb-03 21:32N 51°31' E 001°31'0 0.0
2016-Feb-03 20:32N 51°31' E 001°31'0 0.0
2016-Feb-03 19:32N 51°31' E 001°31'0 0.3
2016-Feb-03 18:33N 51°30' E 001°32'6 6.1
2016-Feb-03 17:33N 51°25' E 001°26'0 0.0
2016-Feb-03 16:33N 51°25' E 001°26'0 0.0
2016-Feb-03 15:33N 51°25' E 001°26'0 0.0
2016-Feb-03 14:34N 51°25' E 001°26'0 0.0
2016-Feb-03 13:33N 51°25' E 001°26'0 0.0
2016-Feb-03 12:33N 51°25' E 001°26'0 0.0
2016-Feb-03 11:33N 51°25' E 001°26'0 0.0
2016-Feb-03 10:34N 51°25' E 001°26'0 0.0
2016-Feb-03 09:33N 51°25' E 001°26'0 0.0
2016-Feb-03 08:34N 51°25' E 001°26'0 0.0
2016-Feb-03 07:33N 51°25' E 001°26'0 0.0
2016-Feb-03 06:33N 51°25' E 001°26'0 0.0
2016-Feb-03 05:34N 51°25' E 001°26'0 0.0
2016-Feb-03 04:33N 51°25' E 001°26'0 0.0
2016-Feb-03 03:33N 51°25' E 001°26'0 0.0
2016-Feb-03 02:33N 51°25' E 001°26'0 0.0
2016-Feb-03 01:33N 51°25' E 001°26'0 0.0
2016-Feb-03 00:33N 51°25' E 001°26'0 0.0
2016-Feb-02 23:33N 51°25' E 001°26'0 0.0
2016-Feb-02 22:33N 51°25' E 001°26'0 0.0
2016-Feb-02 21:34N 51°25' E 001°26'0 0.0
2016-Feb-02 20:33N 51°25' E 001°26'0 0.0
2016-Feb-02 19:33N 51°25' E 001°26'0 0.0
2016-Feb-02 18:33N 51°25' E 001°26'0 0.1
2016-Feb-02 17:33N 51°25' E 001°26'0 0.1
2016-Feb-02 16:33N 51°25' E 001°26'0 0.1
2016-Feb-02 15:33N 51°25' E 001°26'0 0.0
2016-Feb-02 14:33N 51°25' E 001°26'0 0.0
2016-Feb-02 13:33N 51°25' E 001°26'0 0.0
2016-Feb-02 12:33N 51°25' E 001°26'0 0.0
2016-Feb-02 11:33N 51°25' E 001°26'0 0.0
2016-Feb-02 10:34N 51°25' E 001°26'0 0.0
2016-Feb-02 09:33N 51°25' E 001°26'0 0.0
2016-Feb-02 08:33N 51°25' E 001°26'0 0.0
2016-Feb-02 07:33N 51°25' E 001°26'0 0.0
2016-Feb-02 06:33N 51°25' E 001°26'0 0.1
2016-Feb-02 05:33N 51°25' E 001°26'0 0.0
2016-Feb-02 04:33N 51°25' E 001°26'0 0.0
2016-Feb-02 03:33N 51°25' E 001°26'0 0.1
2016-Feb-02 02:33N 51°25' E 001°26'0 0.0
2016-Feb-02 01:33N 51°25' E 001°26'0 0.0
2016-Feb-02 00:33N 51°25' E 001°26'0 0.0
2016-Feb-01 23:33N 51°25' E 001°26'0 0.0
2016-Feb-01 22:33N 51°25' E 001°26'0 0.0
2016-Feb-01 21:33N 51°25' E 001°26'0 0.0
2016-Feb-01 20:33N 51°25' E 001°26'0 0.0
2016-Feb-01 19:33N 51°25' E 001°26'0 0.0
2016-Feb-01 18:33N 51°25' E 001°26'0 0.0
2016-Feb-01 17:33N 51°25' E 001°26'0 0.1
2016-Feb-01 16:33N 51°25' E 001°26'0 0.0
2016-Feb-01 15:33N 51°25' E 001°26'0 0.0
2016-Feb-01 14:33N 51°25' E 001°26'0 0.1
2016-Feb-01 13:33N 51°25' E 001°26'0 0.1
2016-Feb-01 12:33N 51°25' E 001°26'2 1.6
2016-Feb-01 11:34N 51°26' E 001°29'8 7.9
2016-Feb-01 10:33N 51°30' E 001°40'8 8.1
2016-Feb-01 09:33N 51°29' E 001°53'7 7.2
2016-Feb-01 08:33N 51°25' E 002°02'8 7.4
2016-Feb-01 07:33N 51°21' E 002°13'6 5.9
2016-Feb-01 06:32N 51°21' E 002°23'6 6.2
2016-Feb-01 05:31N 51°23' E 002°32'7 6.7
2016-Feb-01 04:33N 51°20' E 002°41'1010.4
2016-Feb-01 03:33N 51°10' E 002°36'1010.3
2016-Feb-01 02:32N 51°04' E 002°22'  

Dump ship's entire track history